sensor_id;sensor_type;location;lat;lon;timestamp;noise_LAeq;noise_LA_min;noise_LA_max;noise_LA01;noise_LA95
42701;Laerm;28316;49.504;8.526;2023-04-03T00:00:23;40.91;39.58;42.09;;
42701;Laerm;28316;49.504;8.526;2023-04-03T00:02:49;40.87;39.46;42.09;;
42701;Laerm;28316;49.504;8.526;2023-04-03T00:05:15;40.84;39.21;42.16;;
42701;Laerm;28316;49.504;8.526;2023-04-03T00:07:40;40.81;39.08;42.16;;
42701;Laerm;28316;49.504;8.526;2023-04-03T00:10:07;40.84;39.35;42.22;;
42701;Laerm;28316;49.504;8.526;2023-04-03T00:12:33;40.86;39.34;42.03;;
42701;Laerm;28316;49.504;8.526;2023-04-03T00:14:59;40.88;39.46;42.42;;
42701;Laerm;28316;49.504;8.526;2023-04-03T00:17:25;40.96;39.46;42.22;;
42701;Laerm;28316;49.504;8.526;2023-04-03T00:19:51;40.90;39.46;42.22;;
42701;Laerm;28316;49.504;8.526;2023-04-03T00:22:16;40.91;39.46;42.09;;
42701;Laerm;28316;49.504;8.526;2023-04-03T00:24:42;40.98;39.34;42.30;;
42701;Laerm;28316;49.504;8.526;2023-04-03T00:27:08;41.08;39.70;42.29;;
42701;Laerm;28316;49.504;8.526;2023-04-03T00:29:34;41.06;39.58;42.29;;
42701;Laerm;28316;49.504;8.526;2023-04-03T00:32:00;41.00;39.46;42.16;;
42701;Laerm;28316;49.504;8.526;2023-04-03T00:34:25;40.87;39.34;42.22;;
42701;Laerm;28316;49.504;8.526;2023-04-03T00:36:51;40.80;39.21;42.09;;
42701;Laerm;28316;49.504;8.526;2023-04-03T00:39:17;40.76;39.34;42.03;;
42701;Laerm;28316;49.504;8.526;2023-04-03T00:41:43;40.77;39.21;41.89;;
42701;Laerm;28316;49.504;8.526;2023-04-03T00:47:16;40.64;39.08;42.09;;
42701;Laerm;28316;49.504;8.526;2023-04-03T00:49:43;40.57;38.81;42.03;;
42701;Laerm;28316;49.504;8.526;2023-04-03T00:52:16;40.54;39.08;41.82;;
42701;Laerm;28316;49.504;8.526;2023-04-03T00:54:44;40.49;38.95;42.00;;
42701;Laerm;28316;49.504;8.526;2023-04-03T00:57:11;40.48;38.81;41.82;;
42701;Laerm;28316;49.504;8.526;2023-04-03T00:59:48;40.46;38.81;41.75;;
42701;Laerm;28316;49.504;8.526;2023-04-03T01:02:17;40.44;38.52;41.82;;
42701;Laerm;28316;49.504;8.526;2023-04-03T01:04:44;40.43;38.67;41.96;;
42701;Laerm;28316;49.504;8.526;2023-04-03T01:07:21;40.44;38.52;42.03;;
42701;Laerm;28316;49.504;8.526;2023-04-03T01:09:50;40.44;38.81;41.75;;
42701;Laerm;28316;49.504;8.526;2023-04-03T01:14:52;40.50;38.67;41.82;;
42701;Laerm;28316;49.504;8.526;2023-04-03T01:17:39;40.56;38.67;42.03;;
42701;Laerm;28316;49.504;8.526;2023-04-03T01:25:56;40.55;38.95;41.89;;
42701;Laerm;28316;49.504;8.526;2023-04-03T01:28:30;40.62;39.08;41.89;;
42701;Laerm;28316;49.504;8.526;2023-04-03T01:31:27;40.64;38.81;42.03;;
42701;Laerm;28316;49.504;8.526;2023-04-03T01:33:54;40.61;38.67;41.89;;
42701;Laerm;28316;49.504;8.526;2023-04-03T01:36:28;40.58;39.08;41.82;;
42701;Laerm;28316;49.504;8.526;2023-04-03T01:38:54;40.60;39.21;41.96;;
42701;Laerm;28316;49.504;8.526;2023-04-03T01:41:21;40.59;38.81;41.96;;
42701;Laerm;28316;49.504;8.526;2023-04-03T01:43:48;40.55;39.08;41.89;;
42701;Laerm;28316;49.504;8.526;2023-04-03T01:46:16;40.48;38.95;41.89;;
42701;Laerm;28316;49.504;8.526;2023-04-03T01:48:42;40.46;38.67;41.75;;
42701;Laerm;28316;49.504;8.526;2023-04-03T01:51:09;40.42;38.67;41.89;;
42701;Laerm;28316;49.504;8.526;2023-04-03T01:53:35;40.35;38.67;41.89;;
42701;Laerm;28316;49.504;8.526;2023-04-03T01:56:00;40.31;38.52;41.89;;
42701;Laerm;28316;49.504;8.526;2023-04-03T01:58:26;40.23;38.37;41.61;;
42701;Laerm;28316;49.504;8.526;2023-04-03T02:00:52;40.16;38.02;41.68;;
42701;Laerm;28316;49.504;8.526;2023-04-03T02:03:18;40.06;38.37;41.46;;
42701;Laerm;28316;49.504;8.526;2023-04-03T02:05:44;39.95;38.21;41.96;;
42701;Laerm;28316;49.504;8.526;2023-04-03T02:08:10;39.90;38.05;41.30;;
42701;Laerm;28316;49.504;8.526;2023-04-03T02:10:37;39.88;37.88;41.38;;
42701;Laerm;28316;49.504;8.526;2023-04-03T02:13:03;39.87;37.88;41.89;;
42701;Laerm;28316;49.504;8.526;2023-04-03T02:15:29;39.86;37.88;41.30;;
42701;Laerm;28316;49.504;8.526;2023-04-03T02:17:54;39.85;38.05;41.38;;
42701;Laerm;28316;49.504;8.526;2023-04-03T02:20:20;39.86;37.88;41.22;;
42701;Laerm;28316;49.504;8.526;2023-04-03T02:22:46;39.85;37.70;41.53;;
42701;Laerm;28316;49.504;8.526;2023-04-03T02:25:12;39.80;37.52;41.46;;
42701;Laerm;28316;49.504;8.526;2023-04-03T02:27:38;39.71;37.70;41.22;;
42701;Laerm;28316;49.504;8.526;2023-04-03T02:30:05;39.65;37.32;41.38;;
42701;Laerm;28316;49.504;8.526;2023-04-03T02:32:31;39.61;37.70;41.14;;
42701;Laerm;28316;49.504;8.526;2023-04-03T02:34:57;39.55;37.70;41.14;;
42701;Laerm;28316;49.504;8.526;2023-04-03T02:37:23;39.49;37.32;41.14;;
42701;Laerm;28316;49.504;8.526;2023-04-03T02:39:48;39.45;37.32;41.30;;
42701;Laerm;28316;49.504;8.526;2023-04-03T02:42:14;39.42;37.32;41.38;;
42701;Laerm;28316;49.504;8.526;2023-04-03T02:44:40;39.38;36.91;41.06;;
42701;Laerm;28316;49.504;8.526;2023-04-03T02:47:06;39.34;37.32;41.22;;
42701;Laerm;28316;49.504;8.526;2023-04-03T02:49:31;39.30;37.32;40.98;;
42701;Laerm;28316;49.504;8.526;2023-04-03T02:51:57;39.25;37.12;40.98;;
42701;Laerm;28316;49.504;8.526;2023-04-03T02:54:23;39.21;36.69;40.98;;
42701;Laerm;28316;49.504;8.526;2023-04-03T02:56:53;39.18;36.69;40.89;;
42701;Laerm;28316;49.504;8.526;2023-04-03T02:59:19;39.20;36.91;41.06;;
42701;Laerm;28316;49.504;8.526;2023-04-03T03:01:45;39.14;36.91;40.89;;
42701;Laerm;28316;49.504;8.526;2023-04-03T03:04:11;39.10;36.91;40.98;;
42701;Laerm;28316;49.504;8.526;2023-04-03T03:06:37;39.09;36.69;40.80;;
42701;Laerm;28316;49.504;8.526;2023-04-03T03:09:03;39.08;36.69;41.06;;
42701;Laerm;28316;49.504;8.526;2023-04-03T03:11:30;39.11;36.45;40.80;;
42701;Laerm;28316;49.504;8.526;2023-04-03T03:13:56;39.10;36.91;41.06;;
42701;Laerm;28316;49.504;8.526;2023-04-03T03:16:22;39.11;36.45;41.14;;
42701;Laerm;28316;49.504;8.526;2023-04-03T03:18:48;39.06;36.91;40.80;;
42701;Laerm;28316;49.504;8.526;2023-04-03T03:21:13;39.02;36.69;40.80;;
42701;Laerm;28316;49.504;8.526;2023-04-03T03:23:39;38.98;36.69;40.80;;
42701;Laerm;28316;49.504;8.526;2023-04-03T03:26:08;38.98;36.91;40.98;;
42701;Laerm;28316;49.504;8.526;2023-04-03T03:28:36;38.98;36.91;40.89;;
42701;Laerm;28316;49.504;8.526;2023-04-03T03:31:03;38.92;36.45;40.89;;
42701;Laerm;28316;49.504;8.526;2023-04-03T03:33:29;38.91;36.77;40.71;;
42701;Laerm;28316;49.504;8.526;2023-04-03T03:35:56;38.88;35.94;40.71;;
42701;Laerm;28316;49.504;8.526;2023-04-03T03:38:22;38.91;36.45;40.71;;
42701;Laerm;28316;49.504;8.526;2023-04-03T03:40:50;38.89;35.94;40.98;;
42701;Laerm;28316;49.504;8.526;2023-04-03T03:43:17;38.87;35.36;40.71;;
42701;Laerm;28316;49.504;8.526;2023-04-03T03:45:43;38.89;36.45;40.62;;
42701;Laerm;28316;49.504;8.526;2023-04-03T03:48:09;38.92;36.20;41.06;;
42701;Laerm;28316;49.504;8.526;2023-04-03T03:50:35;38.93;36.69;40.96;;
42701;Laerm;28316;49.504;8.526;2023-04-03T03:53:01;38.92;36.45;40.71;;
42701;Laerm;28316;49.504;8.526;2023-04-03T03:55:27;38.91;36.69;40.62;;
42701;Laerm;28316;49.504;8.526;2023-04-03T03:57:53;38.93;36.45;40.80;;
42701;Laerm;28316;49.504;8.526;2023-04-03T04:00:19;38.89;36.20;41.30;;
42701;Laerm;28316;49.504;8.526;2023-04-03T04:02:45;38.84;36.45;40.80;;
42701;Laerm;28316;49.504;8.526;2023-04-03T04:05:11;38.79;36.20;41.06;;
42701;Laerm;28316;49.504;8.526;2023-04-03T04:07:37;38.72;36.45;40.71;;
42701;Laerm;28316;49.504;8.526;2023-04-03T04:10:03;38.65;36.20;40.71;;
42701;Laerm;28316;49.504;8.526;2023-04-03T04:12:29;38.61;36.20;40.62;;
42701;Laerm;28316;49.504;8.526;2023-04-03T04:14:55;38.59;36.20;40.63;;
42701;Laerm;28316;49.504;8.526;2023-04-03T04:17:21;38.61;36.20;40.45;;
42701;Laerm;28316;49.504;8.526;2023-04-03T04:19:47;38.57;35.94;40.53;;
42701;Laerm;28316;49.504;8.526;2023-04-03T04:22:13;38.60;36.20;40.53;;
42701;Laerm;28316;49.504;8.526;2023-04-03T04:24:39;38.65;35.94;40.43;;
42701;Laerm;28316;49.504;8.526;2023-04-03T04:27:04;38.70;36.20;40.62;;
42701;Laerm;28316;49.504;8.526;2023-04-03T04:29:30;38.71;35.66;40.71;;
42701;Laerm;28316;49.504;8.526;2023-04-03T04:32:02;38.72;35.66;40.62;;
42701;Laerm;28316;49.504;8.526;2023-04-03T04:34:28;38.76;36.69;40.80;;
42701;Laerm;28316;49.504;8.526;2023-04-03T04:36:54;38.74;35.94;40.62;;
42701;Laerm;28316;49.504;8.526;2023-04-03T04:39:19;38.66;36.20;40.62;;
42701;Laerm;28316;49.504;8.526;2023-04-03T04:41:45;38.71;35.94;40.71;;
42701;Laerm;28316;49.504;8.526;2023-04-03T04:44:11;38.69;36.20;40.62;;
42701;Laerm;28316;49.504;8.526;2023-04-03T04:46:36;38.67;35.66;40.80;;
42701;Laerm;28316;49.504;8.526;2023-04-03T04:49:02;38.63;36.20;40.43;;
42701;Laerm;28316;49.504;8.526;2023-04-03T04:51:28;38.57;36.20;40.98;;
42701;Laerm;28316;49.504;8.526;2023-04-03T04:53:54;38.58;36.20;40.71;;
42701;Laerm;28316;49.504;8.526;2023-04-03T04:56:19;38.52;35.94;40.43;;
42701;Laerm;28316;49.504;8.526;2023-04-03T04:58:46;38.52;36.20;40.53;;
42701;Laerm;28316;49.504;8.526;2023-04-03T05:01:12;38.49;36.20;40.53;;
42701;Laerm;28316;49.504;8.526;2023-04-03T05:03:38;38.48;35.86;40.71;;
42701;Laerm;28316;49.504;8.526;2023-04-03T05:06:04;38.49;35.94;40.33;;
42701;Laerm;28316;49.504;8.526;2023-04-03T05:08:31;38.43;35.66;40.53;;
42701;Laerm;28316;49.504;8.526;2023-04-03T05:10:57;38.41;35.66;40.33;;
42701;Laerm;28316;49.504;8.526;2023-04-03T05:13:23;38.42;35.66;40.62;;
42701;Laerm;28316;49.504;8.526;2023-04-03T05:15:49;38.44;35.66;40.71;;
42701;Laerm;28316;49.504;8.526;2023-04-03T05:18:15;38.43;35.66;40.53;;
42701;Laerm;28316;49.504;8.526;2023-04-03T05:20:41;38.44;34.69;40.62;;
42701;Laerm;28316;49.504;8.526;2023-04-03T05:23:06;38.49;35.94;40.43;;
42701;Laerm;28316;49.504;8.526;2023-04-03T05:25:32;38.51;35.66;40.54;;
42701;Laerm;28316;49.504;8.526;2023-04-03T05:27:58;38.52;35.66;40.43;;
42701;Laerm;28316;49.504;8.526;2023-04-03T05:30:24;38.57;35.94;40.89;;
42701;Laerm;28316;49.504;8.526;2023-04-03T05:32:50;38.57;35.94;40.53;;
42701;Laerm;28316;49.504;8.526;2023-04-03T05:35:16;38.57;36.10;40.62;;
42701;Laerm;28316;49.504;8.526;2023-04-03T05:37:41;38.60;35.94;40.89;;
42701;Laerm;28316;49.504;8.526;2023-04-03T05:40:08;38.60;35.36;40.89;;
42701;Laerm;28316;49.504;8.526;2023-04-03T05:42:34;38.67;36.20;40.80;;
42701;Laerm;28316;49.504;8.526;2023-04-03T05:45:00;38.70;36.45;40.62;;
42701;Laerm;28316;49.504;8.526;2023-04-03T05:47:26;38.74;36.20;40.62;;
42701;Laerm;28316;49.504;8.526;2023-04-03T05:49:52;38.75;35.94;40.53;;
42701;Laerm;28316;49.504;8.526;2023-04-03T05:52:29;38.79;36.45;41.06;;
42701;Laerm;28316;49.504;8.526;2023-04-03T05:54:55;38.81;36.45;40.89;;
42701;Laerm;28316;49.504;8.526;2023-04-03T05:57:21;38.85;36.10;40.62;;
42701;Laerm;28316;49.504;8.526;2023-04-03T05:59:48;38.90;36.45;40.80;;
42701;Laerm;28316;49.504;8.526;2023-04-03T06:02:23;38.90;36.69;40.71;;
42701;Laerm;28316;49.504;8.526;2023-04-03T06:04:49;38.97;36.45;41.03;;
42701;Laerm;28316;49.504;8.526;2023-04-03T06:07:26;38.98;36.69;41.06;;
42701;Laerm;28316;49.504;8.526;2023-04-03T06:09:55;39.02;36.69;41.06;;
42701;Laerm;28316;49.504;8.526;2023-04-03T06:12:22;39.05;36.69;41.14;;
42701;Laerm;28316;49.504;8.526;2023-04-03T06:14:48;39.08;36.69;41.46;;
42701;Laerm;28316;49.504;8.526;2023-04-03T06:17:15;39.14;36.69;41.30;;
42701;Laerm;28316;49.504;8.526;2023-04-03T06:19:42;39.19;36.45;41.14;;
42701;Laerm;28316;49.504;8.526;2023-04-03T06:22:07;39.25;36.91;41.11;;
42701;Laerm;28316;49.504;8.526;2023-04-03T06:24:33;39.36;37.32;41.30;;
42701;Laerm;28316;49.504;8.526;2023-04-03T06:26:59;39.40;37.32;41.06;;
42701;Laerm;28316;49.504;8.526;2023-04-03T06:29:25;39.47;37.32;41.14;;
42701;Laerm;28316;49.504;8.526;2023-04-03T06:31:51;39.56;37.52;41.22;;
42701;Laerm;28316;49.504;8.526;2023-04-03T06:34:17;39.64;37.70;41.46;;
42701;Laerm;28316;49.504;8.526;2023-04-03T06:36:44;39.66;37.52;41.22;;
42701;Laerm;28316;49.504;8.526;2023-04-03T06:39:16;39.82;38.05;41.30;;
42701;Laerm;28316;49.504;8.526;2023-04-03T06:41:43;39.90;37.70;41.82;;
42701;Laerm;28316;49.504;8.526;2023-04-03T06:44:10;39.90;38.21;41.46;;
42701;Laerm;28316;49.504;8.526;2023-04-03T06:46:37;39.95;38.05;41.46;;
42701;Laerm;28316;49.504;8.526;2023-04-03T06:49:05;39.96;37.88;41.68;;
42701;Laerm;28316;49.504;8.526;2023-04-03T06:51:34;39.99;38.21;41.53;;
42701;Laerm;28316;49.504;8.526;2023-04-03T06:54:01;40.04;38.21;41.68;;
42701;Laerm;28316;49.504;8.526;2023-04-03T06:56:28;40.04;38.37;41.75;;
42701;Laerm;28316;49.504;8.526;2023-04-03T06:58:55;40.08;38.21;41.53;;
42701;Laerm;28316;49.504;8.526;2023-04-03T07:01:25;40.06;38.21;41.75;;
42701;Laerm;28316;49.504;8.526;2023-04-03T07:03:53;40.03;38.05;41.53;;
42701;Laerm;28316;49.504;8.526;2023-04-03T07:06:19;40.08;38.21;41.61;;
42701;Laerm;28316;49.504;8.526;2023-04-03T07:08:45;40.11;38.32;41.53;;
42701;Laerm;28316;49.504;8.526;2023-04-03T07:11:12;40.11;38.05;41.46;;
42701;Laerm;28316;49.504;8.526;2023-04-03T07:13:39;40.24;38.37;41.61;;
42701;Laerm;28316;49.504;8.526;2023-04-03T07:16:06;40.31;38.67;41.89;;
42701;Laerm;28316;49.504;8.526;2023-04-03T07:18:33;40.40;38.67;41.89;;
42701;Laerm;28316;49.504;8.526;2023-04-03T07:20:59;40.58;38.95;41.89;;
42701;Laerm;28316;49.504;8.526;2023-04-03T07:23:25;40.69;39.08;42.09;;
42701;Laerm;28316;49.504;8.526;2023-04-03T07:25:52;40.72;39.21;42.16;;
42701;Laerm;28316;49.504;8.526;2023-04-03T07:28:19;40.75;38.95;42.29;;
42701;Laerm;28316;49.504;8.526;2023-04-03T07:30:49;40.83;39.34;42.03;;
42701;Laerm;28316;49.504;8.526;2023-04-03T07:33:17;40.86;39.34;42.22;;
42701;Laerm;28316;49.504;8.526;2023-04-03T07:35:43;40.92;39.34;42.16;;
42701;Laerm;28316;49.504;8.526;2023-04-03T07:38:10;41.07;39.08;44.59;;
42701;Laerm;28316;49.504;8.526;2023-04-03T07:40:37;41.12;39.58;42.35;;
42701;Laerm;28316;49.504;8.526;2023-04-03T07:43:04;41.34;40.03;42.59;;
42701;Laerm;28316;49.504;8.526;2023-04-03T07:45:31;41.42;39.92;43.24;;
42701;Laerm;28316;49.504;8.526;2023-04-03T07:48:00;41.53;39.92;42.93;;
42701;Laerm;28316;49.504;8.526;2023-04-03T07:50:26;41.69;40.43;46.73;;
42701;Laerm;28316;49.504;8.526;2023-04-03T07:52:52;41.63;40.33;43.39;;
42701;Laerm;28316;49.504;8.526;2023-04-03T07:55:20;41.69;40.23;42.71;;
42701;Laerm;28316;49.504;8.526;2023-04-03T07:57:45;41.77;40.43;42.93;;
42701;Laerm;28316;49.504;8.526;2023-04-03T08:00:12;41.75;40.43;42.76;;
42701;Laerm;28316;49.504;8.526;2023-04-03T08:02:38;41.86;40.62;42.98;;
42701;Laerm;28316;49.504;8.526;2023-04-03T08:05:05;41.90;40.62;43.14;;
42701;Laerm;28316;49.504;8.526;2023-04-03T08:07:31;41.95;40.71;43.68;;
42701;Laerm;28316;49.504;8.526;2023-04-03T08:09:56;41.94;40.23;44.15;;
42701;Laerm;28316;49.504;8.526;2023-04-03T08:12:22;41.93;40.43;43.72;;
42701;Laerm;28316;49.504;8.526;2023-04-03T08:14:48;41.88;40.43;43.29;;
42701;Laerm;28316;49.504;8.526;2023-04-03T08:17:14;41.84;40.33;42.93;;
42701;Laerm;28316;49.504;8.526;2023-04-03T08:19:40;41.79;40.03;42.98;;
42701;Laerm;28316;49.504;8.526;2023-04-03T08:22:06;41.79;40.23;43.24;;
42701;Laerm;28316;49.504;8.526;2023-04-03T08:24:35;41.76;40.23;43.09;;
42701;Laerm;28316;49.504;8.526;2023-04-03T08:27:01;41.73;40.23;43.14;;
42701;Laerm;28316;49.504;8.526;2023-04-03T08:29:27;41.70;40.13;42.93;;
42701;Laerm;28316;49.504;8.526;2023-04-03T08:31:53;41.66;39.92;42.93;;
42701;Laerm;28316;49.504;8.526;2023-04-03T08:34:20;41.53;39.46;42.98;;
42701;Laerm;28316;49.504;8.526;2023-04-03T08:36:46;41.49;39.70;42.88;;
42701;Laerm;28316;49.504;8.526;2023-04-03T08:39:12;41.45;39.70;42.88;;
42701;Laerm;28316;49.504;8.526;2023-04-03T08:41:43;41.43;39.58;42.93;;
42701;Laerm;28316;49.504;8.526;2023-04-03T08:44:41;41.37;39.08;42.76;;
42701;Laerm;28316;49.504;8.526;2023-04-03T08:47:42;41.26;39.21;42.71;;
42701;Laerm;28316;49.504;8.526;2023-04-03T08:50:18;41.11;39.08;42.59;;
42701;Laerm;28316;49.504;8.526;2023-04-03T08:52:49;40.97;38.67;42.47;;
42701;Laerm;28316;49.504;8.526;2023-04-03T08:55:27;40.83;38.52;42.74;;
42701;Laerm;28316;49.504;8.526;2023-04-03T08:58:06;40.70;38.05;42.41;;
42701;Laerm;28316;49.504;8.526;2023-04-03T09:00:45;40.65;38.05;42.47;;
42701;Laerm;28316;49.504;8.526;2023-04-03T09:03:16;40.59;38.05;42.41;;
42701;Laerm;28316;49.504;8.526;2023-04-03T09:08:46;41.44;34.69;70.99;;
42701;Laerm;28316;49.504;8.526;2023-04-03T09:14:19;40.32;37.32;42.03;;
42701;Laerm;28316;49.504;8.526;2023-04-03T09:17:00;40.28;36.69;43.76;;
42701;Laerm;28316;49.504;8.526;2023-04-03T09:24:38;40.12;37.70;42.47;;
42701;Laerm;28316;49.504;8.526;2023-04-03T09:27:10;40.04;37.52;42.16;;
42701;Laerm;28316;49.504;8.526;2023-04-03T09:29:41;40.01;37.52;42.41;;
42701;Laerm;28316;49.504;8.526;2023-04-03T09:32:37;40.01;37.32;41.96;;
42701;Laerm;28316;49.504;8.526;2023-04-03T09:40:44;40.10;36.91;45.42;;
42701;Laerm;28316;49.504;8.526;2023-04-03T09:45:45;39.67;36.45;43.29;;
42701;Laerm;28316;49.504;8.526;2023-04-03T09:50:57;39.57;36.69;43.34;;
42701;Laerm;28316;49.504;8.526;2023-04-03T09:56:00;39.68;36.91;41.68;;
42701;Laerm;28316;49.504;8.526;2023-04-03T09:58:42;39.61;36.45;41.61;;
42701;Laerm;28316;49.504;8.526;2023-04-03T10:01:30;39.68;36.45;59.84;;
42701;Laerm;28316;49.504;8.526;2023-04-03T10:06:45;39.74;36.45;51.27;;
42701;Laerm;28316;49.504;8.526;2023-04-03T10:09:27;39.32;36.20;43.44;;
42701;Laerm;28316;49.504;8.526;2023-04-03T10:12:06;39.37;36.20;43.44;;
42701;Laerm;28316;49.504;8.526;2023-04-03T10:14:39;39.37;35.94;42.98;;
42701;Laerm;28316;49.504;8.526;2023-04-03T10:19:55;39.25;35.94;43.29;;
42701;Laerm;28316;49.504;8.526;2023-04-03T10:25:46;39.42;35.36;48.21;;
42701;Laerm;28316;49.504;8.526;2023-04-03T10:28:40;39.45;34.69;44.97;;
42701;Laerm;28316;49.504;8.526;2023-04-03T10:37:30;38.90;35.59;41.53;;
42701;Laerm;28316;49.504;8.526;2023-04-03T10:40:30;38.80;34.69;41.30;;
42701;Laerm;28316;49.504;8.526;2023-04-03T10:43:50;39.06;35.36;42.53;;
42701;Laerm;28316;49.504;8.526;2023-04-03T10:46:23;39.09;35.36;43.63;;
42701;Laerm;28316;49.504;8.526;2023-04-03T10:54:43;38.93;35.36;41.38;;
42701;Laerm;28316;49.504;8.526;2023-04-03T10:57:12;39.05;35.36;44.83;;
42701;Laerm;28316;49.504;8.526;2023-04-03T10:59:57;38.88;34.69;42.47;;
42701;Laerm;28316;49.504;8.526;2023-04-03T11:02:59;39.56;35.36;48.74;;
42701;Laerm;28316;49.504;8.526;2023-04-03T11:05:45;38.76;35.04;41.22;;
42701;Laerm;28316;49.504;8.526;2023-04-03T11:08:49;38.87;35.36;41.38;;
42701;Laerm;28316;49.504;8.526;2023-04-03T11:11:22;39.09;35.04;41.75;;
42701;Laerm;28316;49.504;8.526;2023-04-03T11:14:14;39.44;35.36;48.78;;
42701;Laerm;28316;49.504;8.526;2023-04-03T11:16:47;39.15;34.69;47.20;;
42701;Laerm;28316;49.504;8.526;2023-04-03T11:19:29;38.78;35.04;42.35;;
42701;Laerm;28316;49.504;8.526;2023-04-03T11:24:31;38.95;35.94;42.59;;
42701;Laerm;28316;49.504;8.526;2023-04-03T11:26:59;39.04;35.36;44.47;;
42701;Laerm;28316;49.504;8.526;2023-04-03T11:29:35;38.73;35.36;41.75;;
42701;Laerm;28316;49.504;8.526;2023-04-03T11:35:00;38.99;35.36;44.62;;
42701;Laerm;28316;49.504;8.526;2023-04-03T11:37:47;38.90;34.69;42.59;;
42701;Laerm;28316;49.504;8.526;2023-04-03T11:42:52;38.87;34.69;43.34;;
42701;Laerm;28316;49.504;8.526;2023-04-03T11:48:02;38.58;34.31;43.90;;
42701;Laerm;28316;49.504;8.526;2023-04-03T12:08:47;38.80;35.04;44.07;;
42701;Laerm;28316;49.504;8.526;2023-04-03T12:11:28;38.82;35.36;42.65;;
42701;Laerm;28316;49.504;8.526;2023-04-03T12:19:38;39.03;35.36;46.25;;
42701;Laerm;28316;49.504;8.526;2023-04-03T12:22:19;38.67;35.04;42.29;;
42701;Laerm;28316;49.504;8.526;2023-04-03T12:24:51;38.58;35.04;41.61;;
42701;Laerm;28316;49.504;8.526;2023-04-03T12:36:13;38.59;35.04;43.29;;
42701;Laerm;28316;49.504;8.526;2023-04-03T12:44:59;39.01;35.36;43.93;;
42701;Laerm;28316;49.504;8.526;2023-04-03T12:47:36;38.93;35.36;45.72;;
42701;Laerm;28316;49.504;8.526;2023-04-03T12:50:21;39.04;35.04;44.23;;
42701;Laerm;28316;49.504;8.526;2023-04-03T12:53:01;39.05;35.04;43.49;;
42701;Laerm;28316;49.504;8.526;2023-04-03T12:55:27;38.77;34.69;41.38;;
42701;Laerm;28316;49.504;8.526;2023-04-03T12:57:53;38.83;35.04;41.06;;
42701;Laerm;28316;49.504;8.526;2023-04-03T13:00:33;38.70;34.69;43.24;;
42701;Laerm;28316;49.504;8.526;2023-04-03T13:03:03;38.86;35.04;43.86;;
42701;Laerm;28316;49.504;8.526;2023-04-03T13:05:32;38.88;35.66;43.94;;
42701;Laerm;28316;49.504;8.526;2023-04-03T13:08:04;38.71;35.04;42.82;;
42701;Laerm;28316;49.504;8.526;2023-04-03T13:10:31;38.68;34.69;41.30;;
42701;Laerm;28316;49.504;8.526;2023-04-03T13:13:09;38.59;35.04;41.53;;
42701;Laerm;28316;49.504;8.526;2023-04-03T13:15:46;38.44;34.31;44.27;;
42701;Laerm;28316;49.504;8.526;2023-04-03T13:18:32;38.79;34.69;49.43;;
42701;Laerm;28316;49.504;8.526;2023-04-03T13:21:10;38.53;34.34;43.44;;
42701;Laerm;28316;49.504;8.526;2023-04-03T13:23:42;39.17;34.69;48.45;;
42701;Laerm;28316;49.504;8.526;2023-04-03T13:26:09;38.36;34.31;41.46;;
42701;Laerm;28316;49.504;8.526;2023-04-03T13:28:36;38.39;35.04;42.47;;
42701;Laerm;28316;49.504;8.526;2023-04-03T13:31:07;38.73;35.04;45.45;;
42701;Laerm;28316;49.504;8.526;2023-04-03T13:33:36;38.53;34.31;50.68;;
42701;Laerm;28316;49.504;8.526;2023-04-03T13:36:23;38.39;34.31;42.16;;
42701;Laerm;28316;49.504;8.526;2023-04-03T13:39:20;38.37;34.31;43.63;;
42701;Laerm;28316;49.504;8.526;2023-04-03T13:41:57;38.39;34.31;41.30;;
42701;Laerm;28316;49.504;8.526;2023-04-03T13:44:30;38.69;35.36;41.19;;
42701;Laerm;28316;49.504;8.526;2023-04-03T13:50:03;38.52;34.31;43.86;;
42701;Laerm;28316;49.504;8.526;2023-04-03T13:52:42;38.83;34.69;45.97;;
42701;Laerm;28316;49.504;8.526;2023-04-03T13:55:24;38.32;34.69;42.98;;
42701;Laerm;28316;49.504;8.526;2023-04-03T13:58:19;38.32;34.69;42.03;;
42701;Laerm;28316;49.504;8.526;2023-04-03T14:01:18;38.56;34.69;41.38;;
42701;Laerm;28316;49.504;8.526;2023-04-03T14:03:55;38.73;34.31;43.80;;
42701;Laerm;28316;49.504;8.526;2023-04-03T14:06:21;38.76;34.69;52.85;;
42701;Laerm;28316;49.504;8.526;2023-04-03T14:08:48;38.88;35.04;42.22;;
42701;Laerm;28316;49.504;8.526;2023-04-03T14:11:34;38.67;35.36;41.22;;
42701;Laerm;28316;49.504;8.526;2023-04-03T14:14:09;38.59;34.69;41.38;;
42701;Laerm;28316;49.504;8.526;2023-04-03T14:16:41;38.35;33.90;42.22;;
42701;Laerm;28316;49.504;8.526;2023-04-03T14:19:07;38.31;34.31;43.94;;
42701;Laerm;28316;49.504;8.526;2023-04-03T14:21:33;38.34;33.44;43.58;;
42701;Laerm;28316;49.504;8.526;2023-04-03T14:23:59;38.20;33.44;41.53;;
42701;Laerm;28316;49.504;8.526;2023-04-03T14:26:27;38.38;34.31;42.47;;
42701;Laerm;28316;49.504;8.526;2023-04-03T14:28:56;38.44;33.90;40.98;;
42701;Laerm;28316;49.504;8.526;2023-04-03T14:31:23;38.51;34.31;41.06;;
42701;Laerm;28316;49.504;8.526;2023-04-03T14:33:49;38.52;34.31;40.98;;
42701;Laerm;28316;49.504;8.526;2023-04-03T14:36:24;38.47;35.04;40.89;;
42701;Laerm;28316;49.504;8.526;2023-04-03T14:38:52;38.48;34.31;41.14;;
42701;Laerm;28316;49.504;8.526;2023-04-03T14:41:22;38.61;35.36;41.89;;
42701;Laerm;28316;49.504;8.526;2023-04-03T14:43:49;38.50;34.31;42.22;;
42701;Laerm;28316;49.504;8.526;2023-04-03T14:48:48;38.53;35.04;46.64;;
42701;Laerm;28316;49.504;8.526;2023-04-03T14:51:14;38.50;35.04;40.89;;
42701;Laerm;28316;49.504;8.526;2023-04-03T14:53:42;38.62;34.31;44.39;;
42701;Laerm;28316;49.504;8.526;2023-04-03T14:56:29;38.47;34.31;41.61;;
42701;Laerm;28316;49.504;8.526;2023-04-03T14:59:00;38.50;33.44;43.49;;
42701;Laerm;28316;49.504;8.526;2023-04-03T15:01:27;38.28;33.90;42.47;;
42701;Laerm;28316;49.504;8.526;2023-04-03T15:03:54;38.06;33.44;42.76;;
42701;Laerm;28316;49.504;8.526;2023-04-03T15:06:20;38.23;34.31;42.98;;
42701;Laerm;28316;49.504;8.526;2023-04-03T15:08:47;38.47;32.35;42.35;;
42701;Laerm;28316;49.504;8.526;2023-04-03T15:11:14;38.46;33.90;42.88;;
42701;Laerm;28316;49.504;8.526;2023-04-03T15:13:40;38.45;34.69;45.14;;
42701;Laerm;28316;49.504;8.526;2023-04-03T15:16:18;38.73;34.69;44.34;;
42701;Laerm;28316;49.504;8.526;2023-04-03T15:18:46;38.96;34.69;46.63;;
42701;Laerm;28316;49.504;8.526;2023-04-03T15:21:13;38.51;29.92;43.86;;
42701;Laerm;28316;49.504;8.526;2023-04-03T15:23:38;38.35;33.44;40.89;;
42701;Laerm;28316;49.504;8.526;2023-04-03T15:26:05;38.44;34.31;42.59;;
42701;Laerm;28316;49.504;8.526;2023-04-03T15:28:41;40.24;32.35;72.07;;
42701;Laerm;28316;49.504;8.526;2023-04-03T15:31:08;38.28;34.31;42.16;;
42701;Laerm;28316;49.504;8.526;2023-04-03T15:33:34;38.22;33.90;40.71;;
42701;Laerm;28316;49.504;8.526;2023-04-03T15:36:00;38.28;34.69;40.98;;
42701;Laerm;28316;49.504;8.526;2023-04-03T15:38:26;38.20;34.31;40.80;;
42701;Laerm;28316;49.504;8.526;2023-04-03T15:43:21;38.19;34.31;40.98;;
42701;Laerm;28316;49.504;8.526;2023-04-03T15:45:47;38.17;34.31;40.89;;
42701;Laerm;28316;49.504;8.526;2023-04-03T15:48:13;38.21;33.90;40.53;;
42701;Laerm;28316;49.504;8.526;2023-04-03T15:50:40;38.25;34.31;40.98;;
42701;Laerm;28316;49.504;8.526;2023-04-03T15:53:06;38.29;32.35;42.82;;